Time;durP1;ratioP1;P1;durP2;ratioP2;P2;SDS_P1;SDS_P2;PMS_P1;PMS_P2;Temp;Humidity;BMP_temperature;BMP_pressure;BME280_temperature;BME280_humidity;BME280_pressure;Samples;Min_cycle;Max_cycle;Signal;HPM_P1;HPM_P2
2021/04/28 00:00:31;;;;;;;14.65;5.70;;;;;;;-1.89;76.47;100311.17;1653821;86;21725;-70
2021/04/28 00:03:09;;;;;;;12.67;6.23;;;;;;;-1.87;76.77;100306.91;1919382;73;20958;-71
2021/04/28 00:05:37;;;;;;;18.70;10.08;;;;;;;-1.93;76.57;100310.27;1887514;76;21103;-68
2021/04/28 00:08:06;;;;;;;13.43;8.20;;;;;;;-1.98;76.32;100311.02;1887069;76;21357;-69
2021/04/28 00:10:38;;;;;;;12.93;6.58;;;;;;;-2.02;76.14;100318.29;1887303;76;21154;-70
2021/04/28 00:13:07;;;;;;;14.33;6.55;;;;;;;-2.06;76.51;100316.06;1887124;76;21103;-69
2021/04/28 00:15:42;;;;;;;14.27;6.30;;;;;;;-2.08;76.66;100313.88;1887586;75;21130;-69
2021/04/28 00:18:10;;;;;;;13.43;6.70;;;;;;;-2.08;76.89;100312.58;1853212;76;21146;-69
2021/04/28 00:20:39;;;;;;;12.00;6.15;;;;;;;-2.10;76.81;100320.72;1887405;76;21358;-70
2021/04/28 00:23:09;;;;;;;10.68;5.28;;;;;;;-2.14;76.73;100316.34;1887672;76;21185;-70
2021/04/28 00:25:39;;;;;;;10.78;5.45;;;;;;;-2.15;76.75;100318.48;1886882;76;21055;-72
2021/04/28 00:28:08;;;;;;;14.43;6.42;;;;;;;-2.16;76.91;100315.47;1833992;76;21169;-70
2021/04/28 00:30:38;;;;;;;14.03;6.60;;;;;;;-2.18;76.90;100318.44;1832294;78;21133;-71
2021/04/28 00:33:06;;;;;;;19.27;6.85;;;;;;;-2.19;77.07;100320.55;1800918;78;21809;-73
2021/04/28 00:35:35;;;;;;;12.10;6.62;;;;;;;-2.20;77.16;100318.83;1799422;77;21161;-75
2021/04/28 00:38:04;;;;;;;15.05;6.10;;;;;;;-2.23;77.27;100316.17;1799567;79;21153;-74
2021/04/28 00:40:37;;;;;;;11.68;6.65;;;;;;;-2.23;77.44;100322.63;1810681;77;21106;-74
2021/04/28 00:43:23;;;;;;;11.97;6.75;;;;;;;-2.23;77.59;100325.20;1848708;77;21167;-73
2021/04/28 00:45:51;;;;;;;12.90;6.17;;;;;;;-2.23;77.61;100329.08;1847106;77;22119;-74
2021/04/28 00:48:19;;;;;;;11.22;6.40;;;;;;;-2.24;77.73;100328.64;1812349;77;21509;-73
2021/04/28 00:50:48;;;;;;;10.88;6.17;;;;;;;-2.27;77.68;100328.17;1852758;77;21154;-73
2021/04/28 00:53:18;;;;;;;8.85;5.03;;;;;;;-2.30;77.58;100330.70;1847192;77;21138;-73
2021/04/28 00:55:47;;;;;;;10.30;6.35;;;;;;;-2.33;77.62;100328.05;1849796;77;21167;-71
2021/04/28 00:58:15;;;;;;;15.90;7.60;;;;;;;-2.47;77.88;100312.31;1849089;77;21374;-71
2021/04/28 01:00:44;;;;;;;11.85;6.37;;;;;;;-2.39;77.93;100334.41;1848987;77;21166;-72
2021/04/28 01:03:14;;;;;;;13.53;7.53;;;;;;;-2.43;77.94;100334.75;1848995;76;21107;-73
2021/04/28 01:05:43;;;;;;;15.13;6.30;;;;;;;-2.46;78.23;100331.23;1848817;77;21337;-74
2021/04/28 01:08:12;;;;;;;16.12;7.58;;;;;;;-2.49;78.19;100330.76;1848790;77;21182;-73
2021/04/28 01:10:41;;;;;;;14.23;7.65;;;;;;;-2.50;78.32;100335.48;1848636;76;21801;-72
2021/04/28 01:13:10;;;;;;;14.68;7.35;;;;;;;-2.54;78.25;100337.55;1848332;77;21159;-72
2021/04/28 01:15:39;;;;;;;15.10;7.42;;;;;;;-2.58;78.28;100330.58;1848053;77;21162;-72
2021/04/28 01:18:24;;;;;;;14.87;6.97;;;;;;;-2.54;78.51;100336.25;1843541;76;22596;-71
2021/04/28 01:20:53;;;;;;;19.62;6.87;;;;;;;-2.60;78.62;100338.31;1815624;79;21170;-71
2021/04/28 01:23:23;;;;;;;12.90;7.78;;;;;;;-2.63;78.71;100330.92;1815517;79;21180;-71
2021/04/28 01:25:52;;;;;;;15.75;7.20;;;;;;;-2.64;78.68;100335.64;1815849;79;21556;-72
2021/04/28 01:28:23;;;;;;;18.92;8.35;;;;;;;-2.69;78.76;100329.11;1815617;79;21118;-70
2021/04/28 01:31:12;;;;;;;13.83;6.72;;;;;;;-2.70;78.89;100330.35;1811895;79;21701;-71
2021/04/28 01:33:47;;;;;;;18.35;8.33;;;;;;;-2.72;78.94;100337.19;1760028;80;21203;-72
2021/04/28 01:36:24;;;;;;;16.17;7.42;;;;;;;-2.75;79.10;100334.98;1781154;80;21231;-72
2021/04/28 01:38:56;;;;;;;18.40;8.20;;;;;;;-2.76;79.33;100334.55;1781327;80;21208;-71
2021/04/28 01:41:26;;;;;;;18.27;9.75;;;;;;;-2.78;79.47;100329.78;1782191;80;21175;-71
2021/04/28 01:43:56;;;;;;;14.33;7.37;;;;;;;-2.80;79.59;100332.75;1779795;80;21174;-71
2021/04/28 01:46:26;;;;;;;19.52;8.50;;;;;;;-2.83;79.47;100330.51;1745701;82;21163;-70
2021/04/28 01:48:55;;;;;;;15.70;7.87;;;;;;;-2.88;79.42;100327.84;1737905;82;21452;-70
2021/04/28 01:51:25;;;;;;;13.03;6.28;;;;;;;-2.91;79.51;100332.94;1737639;82;21229;-70
2021/04/28 01:53:54;;;;;;;13.25;6.80;;;;;;;-2.93;79.50;100331.17;1737676;82;21249;-70
2021/04/28 01:56:22;;;;;;;15.03;7.15;;;;;;;-2.96;79.67;100334.56;1737708;82;21218;-70
2021/04/28 01:59:09;;;;;;;17.00;7.40;;;;;;;-2.98;79.75;100328.50;1737732;82;21296;-71
2021/04/28 02:02:04;;;;;;;14.07;6.60;;;;;;;-2.94;80.02;100332.89;1888021;76;22650;-71
2021/04/28 02:04:34;;;;;;;;;;;;;;;-3.02;80.20;100335.28;1860978;77;21134;-70
2021/04/28 02:07:06;;;;;;;17.17;8.48;;;;;;;-3.02;80.47;100337.00;1826957;77;21153;-71
2021/04/28 02:09:35;;;;;;;15.08;8.13;;;;;;;-3.06;80.53;100339.05;1825149;77;21123;-69
2021/04/28 02:12:13;;;;;;;20.90;8.10;;;;;;;-3.07;80.67;100337.33;1781022;79;21182;-70
2021/04/28 02:14:41;;;;;;;16.17;7.55;;;;;;;-3.08;80.65;100339.04;1810257;79;21163;-71
2021/04/28 02:17:26;;;;;;;11.67;5.83;;;;;;;-3.05;80.59;100329.22;1834840;78;23332;-70
2021/04/28 02:19:55;;;;;;;14.65;6.92;;;;;;;-3.11;80.52;100338.95;1807278;79;21198;-70
2021/04/28 02:22:27;;;;;;;17.45;7.78;;;;;;;-3.14;80.58;100332.88;1807256;79;21377;-71
2021/04/28 02:24:57;;;;;;;19.82;7.83;;;;;;;-3.14;80.64;100336.75;1805484;79;21214;-70
2021/04/28 02:27:27;;;;;;;16.93;8.33;;;;;;;-3.16;80.74;100342.72;1806590;79;21167;-72
2021/04/28 02:29:56;;;;;;;18.82;8.60;;;;;;;-3.17;80.82;100347.44;1806950;79;21822;-71
2021/04/28 02:32:26;;;;;;;17.50;9.60;;;;;;;-3.17;80.95;100348.72;1779492;79;21390;-71
2021/04/28 02:35:14;;;;;;;19.43;9.43;;;;;;;-3.11;81.04;100344.11;1845492;76;22119;-71
2021/04/28 02:37:49;;;;;;;17.02;7.92;;;;;;;-3.14;81.12;100349.63;1804076;79;21227;-70
2021/04/28 02:40:38;;;;;;;13.68;7.70;;;;;;;-3.12;81.18;100355.69;1794916;79;21399;-72
2021/04/28 02:43:06;;;;;;;17.37;7.85;;;;;;;-3.11;81.18;100352.26;1815424;79;21229;-70
2021/04/28 02:45:35;;;;;;;11.22;5.75;;;;;;;-3.11;81.17;100355.70;1815326;78;21326;-71
2021/04/28 02:48:07;;;;;;;17.00;8.05;;;;;;;-3.10;81.19;100356.59;1815436;79;21143;-71
2021/04/28 02:50:37;;;;;;;18.77;8.60;;;;;;;-3.07;81.27;100353.65;1816162;79;21212;-70
2021/04/28 02:53:10;;;;;;;16.48;8.18;;;;;;;-3.06;81.23;100359.66;1815813;78;21421;-69
2021/04/28 02:55:39;;;;;;;17.02;7.85;;;;;;;-3.06;81.12;100357.09;1815735;79;21187;-69
2021/04/28 02:58:07;;;;;;;16.87;8.08;;;;;;;-3.04;81.18;100361.43;1815767;78;21143;-71
2021/04/28 03:00:37;;;;;;;16.77;7.72;;;;;;;-3.02;81.32;100365.34;1814103;79;21183;-71
2021/04/28 03:03:05;;;;;;;17.20;8.40;;;;;;;-3.01;81.37;100363.23;1783423;79;21194;-69
2021/04/28 03:05:34;;;;;;;20.02;8.93;;;;;;;-3.00;81.22;100361.09;1815660;79;22354;-70
2021/04/28 03:08:05;;;;;;;13.98;7.53;;;;;;;-2.98;81.13;100362.00;1813866;79;21127;-70
2021/04/28 03:10:35;;;;;;;12.05;6.78;;;;;;;-2.96;81.13;100360.33;1814622;79;21170;-71
2021/04/28 03:13:04;;;;;;;9.73;5.25;;;;;;;-2.87;81.39;100365.68;1808820;79;21121;-69
2021/04/28 03:15:34;;;;;;;17.25;7.78;;;;;;;-2.64;81.75;100370.45;1787081;79;21186;-70
2021/04/28 03:18:05;;;;;;;13.85;6.80;;;;;;;-2.16;82.00;100369.66;1813872;78;21205;-70
2021/04/28 03:20:36;;;;;;;16.07;8.20;;;;;;;-1.56;81.18;100366.80;1813866;79;21160;-74
2021/04/28 03:23:07;;;;;;;14.85;7.42;;;;;;;-0.96;79.79;100363.81;1813764;79;21631;-74
2021/04/28 03:25:43;;;;;;;14.93;7.30;;;;;;;-0.41;78.32;100364.49;1802084;79;21178;-74
2021/04/28 03:28:12;;;;;;;16.75;7.78;;;;;;;0.13;76.88;100365.89;1798893;79;21188;-73
2021/04/28 03:30:40;;;;;;;13.93;7.95;;;;;;;0.59;75.15;100364.11;1784876;79;21194;-71
2021/04/28 03:33:09;;;;;;;15.60;7.87;;;;;;;1.07;73.92;100363.98;1740375;81;21214;-71
2021/04/28 03:36:12;;;;;;;16.70;7.80;;;;;;;1.74;71.81;100376.36;1828455;76;22738;-72
2021/04/28 03:38:42;;;;;;;18.40;7.65;;;;;;;2.13;70.10;100373.42;1802970;79;21629;-72
2021/04/28 03:41:11;;;;;;;15.88;7.60;;;;;;;2.57;68.76;100368.66;1803770;79;21686;-70
2021/04/28 03:43:40;;;;;;;12.98;6.92;;;;;;;2.99;66.92;100370.80;1794141;78;21200;-70
2021/04/28 03:46:09;;;;;;;17.30;7.87;;;;;;;3.36;65.75;100371.55;1793116;79;21175;-71
2021/04/28 03:48:53;;;;;;;22.93;9.10;;;;;;;3.86;64.33;100367.39;1827187;76;24769;-70
2021/04/28 03:51:22;;;;;;;31.10;7.22;;;;;;;4.21;62.78;100372.40;1786182;79;21170;-70
2021/04/28 03:54:04;;;;;;;14.15;7.40;;;;;;;4.69;61.20;100374.16;1837475;76;28084;-69
2021/04/28 03:56:33;;;;;;;20.55;8.68;;;;;;;4.99;59.61;100373.44;1715237;82;21142;-70
2021/04/28 03:59:03;;;;;;;18.67;7.40;;;;;;;5.36;58.84;100379.56;1736576;81;21720;-70
2021/04/28 04:01:31;;;;;;;25.08;7.72;;;;;;;5.73;57.49;100383.02;1750496;81;21187;-71
2021/04/28 04:04:04;;;;;;;13.50;6.53;;;;;;;6.12;56.31;100379.05;1747475;81;21138;-73
2021/04/28 04:06:37;;;;;;;16.23;7.15;;;;;;;6.49;55.07;100378.02;1738045;81;21678;-70
2021/04/28 04:09:16;;;;;;;13.28;7.33;;;;;;;6.84;54.00;100377.86;1750089;81;21202;-75
2021/04/28 04:11:45;;;;;;;18.27;7.50;;;;;;;7.21;53.00;100385.05;1744873;81;21375;-76
2021/04/28 04:14:18;;;;;;;15.03;7.50;;;;;;;7.40;51.75;100385.99;1757503;81;21197;-76
2021/04/28 04:16:52;;;;;;;14.28;7.62;;;;;;;7.65;50.76;100390.30;1814511;79;21119;-76
2021/04/28 04:19:21;;;;;;;14.78;7.53;;;;;;;7.93;49.74;100391.41;1755122;80;21660;-75
2021/04/28 04:21:52;;;;;;;14.23;6.97;;;;;;;8.23;49.30;100394.70;1802652;79;21067;-76
2021/04/28 04:24:24;;;;;;;17.85;7.08;;;;;;;8.57;48.37;100390.41;1758936;79;21221;-76
2021/04/28 04:27:05;;;;;;;13.25;6.92;;;;;;;8.95;47.11;100395.16;1765594;79;21131;-76
2021/04/28 04:29:50;;;;;;;14.13;7.00;;;;;;;9.28;46.61;100392.52;1809320;79;21155;-76
2021/04/28 04:32:29;;;;;;;16.00;7.05;;;;;;;9.65;46.00;100406.80;1753075;81;21170;-77
2021/04/28 04:35:13;;;;;;;16.23;7.42;;;;;;;10.04;45.12;100403.03;1761427;80;21099;-78
2021/04/28 04:38:07;;;;;;;18.25;8.35;;;;;;;10.56;43.90;100396.17;1853908;76;22792;-77
2021/04/28 04:40:54;;;;;;;14.87;7.30;;;;;;;10.91;43.34;100400.72;1825029;78;21146;-76
2021/04/28 04:43:36;;;;;;;17.27;9.10;;;;;;;11.34;41.97;100396.55;1825252;78;21166;-76
2021/04/28 04:46:06;;;;;;;20.52;8.65;;;;;;;11.73;41.25;100408.77;1795016;78;22139;-76
2021/04/28 04:48:35;;;;;;;24.02;8.78;;;;;;;12.11;40.10;100401.66;1855796;77;21562;-78
2021/04/28 04:51:05;;;;;;;19.45;9.40;;;;;;;12.50;39.39;100403.63;1826131;77;21206;-76
2021/04/28 04:53:33;;;;;;;22.75;9.03;;;;;;;12.89;38.63;100401.59;1840969;77;21182;-76
2021/04/28 04:56:01;;;;;;;19.50;9.48;;;;;;;13.29;37.57;100406.03;1828128;78;22163;-76
2021/04/28 04:58:30;;;;;;;19.45;9.28;;;;;;;13.68;36.82;100405.66;1835442;77;21166;-77
2021/04/28 05:00:59;;;;;;;12.35;6.33;;;;;;;14.02;35.92;100412.43;1837299;77;21048;-76
2021/04/28 05:03:28;;;;;;;26.12;8.48;;;;;;;14.41;34.61;100408.81;1818484;77;22337;-77
2021/04/28 05:05:56;;;;;;;10.45;6.10;;;;;;;14.80;33.83;100409.63;1818069;77;21174;-76
2021/04/28 05:08:25;;;;;;;6.37;3.40;;;;;;;15.10;31.35;100408.53;1835503;77;21366;-78
2021/04/28 05:10:53;;;;;;;13.35;4.05;;;;;;;15.38;31.38;100411.08;1843195;77;21127;-76
2021/04/28 05:13:22;;;;;;;6.45;2.67;;;;;;;15.66;29.95;100414.44;1826019;78;21221;-75
2021/04/28 05:15:50;;;;;;;6.50;3.10;;;;;;;15.86;28.09;100412.94;1824820;77;21651;-73
2021/04/28 05:18:18;;;;;;;3.62;2.35;;;;;;;16.06;28.70;100412.33;1828862;77;21180;-77
2021/04/28 05:20:47;;;;;;;7.30;2.52;;;;;;;16.33;27.78;100414.77;1828957;77;21442;-78
2021/04/28 05:23:16;;;;;;;4.28;2.52;;;;;;;16.41;26.14;100418.31;1826854;77;21138;-78
2021/04/28 05:26:04;;;;;;;5.22;2.62;;;;;;;16.46;27.18;100420.23;1809331;78;21169;-78
2021/04/28 05:28:33;;;;;;;5.60;2.70;;;;;;;16.54;27.57;100419.34;1788698;80;21143;-79
2021/04/28 05:31:02;;;;;;;5.95;2.80;;;;;;;16.73;27.55;100418.28;1789663;78;21144;-78
2021/04/28 05:33:32;;;;;;;5.35;2.25;;;;;;;16.85;27.59;100424.71;1803616;78;21174;-78
2021/04/28 05:36:01;;;;;;;3.42;2.17;;;;;;;16.97;27.03;100427.49;1820294;78;21167;-77
2021/04/28 05:38:30;;;;;;;2.58;1.52;;;;;;;17.23;25.68;100431.77;1784200;80;21194;-78
2021/04/28 05:40:58;;;;;;;3.47;1.70;;;;;;;17.49;26.21;100427.52;1829055;77;21217;-79
2021/04/28 05:43:26;;;;;;;7.05;2.47;;;;;;;17.77;24.58;100441.31;1800429;78;21202;-78
2021/04/28 05:45:54;;;;;;;2.80;2.20;;;;;;;18.05;24.52;100442.28;1778910;80;21211;-77
2021/04/28 05:48:22;;;;;;;8.03;2.40;;;;;;;18.19;23.69;100442.25;1777114;80;21802;-78
2021/04/28 05:50:51;;;;;;;3.15;1.67;;;;;;;18.17;23.57;100443.31;1787760;78;21171;-78
2021/04/28 05:53:19;;;;;;;3.35;2.02;;;;;;;18.06;23.36;100443.13;1815269;77;21710;-80
2021/04/28 05:55:48;;;;;;;3.87;1.95;;;;;;;18.01;22.89;100443.42;1809595;78;21131;-70
2021/04/28 05:58:17;;;;;;;5.28;1.65;;;;;;;18.05;23.32;100443.61;1783329;80;21207;-75
2021/04/28 06:00:45;;;;;;;10.18;2.10;;;;;;;18.15;23.01;100451.42;1773546;78;21204;-75
2021/04/28 06:03:13;;;;;;;6.15;2.70;;;;;;;18.42;23.59;100447.92;1784723;78;21537;-76
2021/04/28 06:05:41;;;;;;;6.78;2.42;;;;;;;18.72;24.00;100447.73;1772985;79;21162;-77
2021/04/28 06:08:12;;;;;;;4.53;1.80;;;;;;;18.93;23.30;100446.81;1789188;77;21229;-71
2021/04/28 06:10:40;;;;;;;4.83;2.15;;;;;;;19.05;22.18;100446.00;1787111;79;21207;-72
2021/04/28 06:13:11;;;;;;;2.45;1.40;;;;;;;18.71;21.95;100447.85;1787694;79;21204;-73
2021/04/28 06:15:39;;;;;;;4.22;2.10;;;;;;;18.59;22.35;100454.36;1783219;79;21730;-73
2021/04/28 06:18:07;;;;;;;3.25;1.80;;;;;;;18.61;21.13;100448.45;1790051;79;21122;-73
2021/04/28 06:20:37;;;;;;;3.70;1.32;;;;;;;18.56;20.80;100451.88;1784911;79;21167;-72
2021/04/28 06:23:06;;;;;;;3.35;1.85;;;;;;;18.52;21.39;100456.17;1794006;79;21537;-72
2021/04/28 06:25:34;;;;;;;3.30;1.98;;;;;;;18.46;21.57;100452.11;1792743;79;21202;-72
2021/04/28 06:28:05;;;;;;;7.72;2.30;;;;;;;18.26;21.57;100449.87;1780095;80;21124;-74
2021/04/28 06:30:33;;;;;;;6.95;2.10;;;;;;;18.05;21.53;100458.27;1783083;79;21314;-72
2021/04/28 06:33:02;;;;;;;7.62;2.33;;;;;;;18.18;21.71;100461.88;1768752;79;21287;-72
2021/04/28 06:35:33;;;;;;;3.08;2.10;;;;;;;18.16;21.35;100459.78;1782694;79;21381;-73
2021/04/28 06:38:01;;;;;;;4.55;2.20;;;;;;;18.36;21.64;100463.85;1814469;79;21205;-73
2021/04/28 06:40:33;;;;;;;4.47;2.17;;;;;;;18.55;21.12;100455.52;1815016;79;21213;-75
2021/04/28 06:43:02;;;;;;;3.80;2.00;;;;;;;18.39;21.27;100456.98;1815633;79;21189;-74
2021/04/28 06:45:30;;;;;;;5.50;1.98;;;;;;;17.76;22.01;100462.26;1814630;79;21209;-73
2021/04/28 06:47:59;;;;;;;3.87;2.00;;;;;;;17.57;22.71;100465.65;1797123;78;22109;-73
2021/04/28 06:50:27;;;;;;;3.72;2.22;;;;;;;17.56;22.84;100466.61;1778791;80;21193;-73
2021/04/28 06:52:55;;;;;;;7.62;2.65;;;;;;;17.47;22.27;100465.84;1779248;80;21132;-73
2021/04/28 06:55:23;;;;;;;3.90;2.00;;;;;;;17.48;23.67;100467.54;1779418;80;21788;-72
2021/04/28 06:57:55;;;;;;;3.50;1.92;;;;;;;17.12;22.23;100468.80;1779165;80;21175;-74
2021/04/28 07:00:26;;;;;;;6.65;1.87;;;;;;;16.14;22.56;100476.51;1779410;80;22067;-72
2021/04/28 07:02:57;;;;;;;4.75;2.27;;;;;;;15.77;24.20;100478.97;1779359;80;21215;-72
2021/04/28 07:05:25;;;;;;;4.67;2.27;;;;;;;15.91;23.65;100479.08;1779295;80;21688;-73
2021/04/28 07:07:55;;;;;;;4.87;1.87;;;;;;;15.84;23.24;100483.01;1779399;80;21670;-72
2021/04/28 07:10:26;;;;;;;2.08;1.87;;;;;;;16.06;22.64;100481.40;1779392;80;21155;-73
2021/04/28 07:12:54;;;;;;;2.75;1.65;;;;;;;16.33;22.25;100477.23;1779361;80;21374;-73
2021/04/28 07:15:22;;;;;;;5.53;1.80;;;;;;;16.44;22.29;100481.92;1779394;80;21618;-74
2021/04/28 07:17:52;;;;;;;6.08;2.10;;;;;;;16.74;22.76;100482.47;1787255;78;21174;-73
2021/04/28 07:20:20;;;;;;;4.83;2.12;;;;;;;17.13;23.23;100482.47;1787791;80;21198;-73
2021/04/28 07:22:48;;;;;;;4.83;1.77;;;;;;;17.31;21.98;100478.73;1764077;81;21221;-73
2021/04/28 07:25:16;;;;;;;3.62;1.90;;;;;;;17.44;22.99;100480.64;1788037;80;21571;-73
2021/04/28 07:27:46;;;;;;;3.25;2.00;;;;;;;17.58;22.29;100482.02;1788012;80;21130;-73
2021/04/28 07:30:15;;;;;;;3.22;1.98;;;;;;;17.73;21.58;100483.73;1774226;78;21719;-73
2021/04/28 07:32:44;;;;;;;3.55;2.02;;;;;;;17.77;21.84;100471.95;1763777;81;21193;-72
2021/04/28 07:35:15;;;;;;;4.53;2.10;;;;;;;18.01;21.53;100475.39;1763397;81;21159;-73
2021/04/28 07:37:42;;;;;;;4.17;2.15;;;;;;;18.14;19.94;100484.34;1763444;81;22357;-72
2021/04/28 07:40:12;;;;;;;11.20;2.42;;;;;;;17.28;20.40;100485.58;1763317;81;21205;-73
2021/04/28 07:42:41;;;;;;;5.15;2.40;;;;;;;16.81;21.13;100478.55;1763573;81;21195;-73
2021/04/28 07:45:10;;;;;;;8.35;2.42;;;;;;;16.60;21.89;100478.41;1763343;81;21179;-73
2021/04/28 07:47:39;;;;;;;7.12;2.30;;;;;;;16.54;22.24;100480.93;1765575;79;21217;-74
2021/04/28 07:50:10;;;;;;;5.45;2.58;;;;;;;16.90;22.03;100483.33;1765527;79;21818;-73
2021/04/28 07:52:38;;;;;;;6.12;2.37;;;;;;;17.34;20.63;100486.52;1763250;79;21171;-74
2021/04/28 07:55:07;;;;;;;5.22;2.50;;;;;;;17.68;21.38;100481.83;1763664;79;21182;-74
2021/04/28 07:57:35;;;;;;;4.97;2.65;;;;;;;18.21;21.61;100473.67;1770650;79;21633;-75
2021/04/28 08:00:08;;;;;;;3.77;2.60;;;;;;;18.64;20.18;100469.58;1763536;81;21147;-72
2021/04/28 08:02:42;;;;;;;7.33;3.40;;;;;;;18.70;20.07;100470.13;1763390;81;21374;-72
2021/04/28 08:05:12;;;;;;;4.50;2.60;;;;;;;18.68;20.91;100472.03;1763301;81;21195;-71
2021/04/28 08:07:40;;;;;;;10.68;3.45;;;;;;;18.71;20.66;100469.19;1763339;81;21190;-73
2021/04/28 08:10:10;;;;;;;6.92;3.50;;;;;;;18.85;20.96;100470.02;1763362;79;21226;-73
2021/04/28 08:12:38;;;;;;;4.10;2.98;;;;;;;19.03;20.38;100465.27;1811910;78;21154;-73
2021/04/28 08:15:07;;;;;;;5.22;3.65;;;;;;;19.25;20.43;100467.33;1813585;78;21362;-73
2021/04/28 08:17:38;;;;;;;7.25;3.42;;;;;;;19.23;18.96;100476.41;1786719;78;21143;-73
2021/04/28 08:23:12;;;;;;;11.60;4.37;;;;;;;19.08;19.37;100470.30;1781924;80;22797;-73
2021/04/28 08:25:42;;;;;;;7.75;4.53;;;;;;;18.45;19.42;100475.75;1757714;80;21166;-72
2021/04/28 08:28:10;;;;;;;8.43;4.12;;;;;;;17.43;20.48;100468.30;1752078;81;22344;-73
2021/04/28 08:30:39;;;;;;;8.35;3.83;;;;;;;16.83;21.33;100468.68;1739805;80;21174;-72
2021/04/28 08:33:09;;;;;;;5.60;3.80;;;;;;;16.33;21.85;100461.28;1749042;81;27139;-73
2021/04/28 08:35:39;;;;;;;9.65;4.70;;;;;;;16.19;22.09;100474.92;1693865;84;21240;-72
2021/04/28 08:38:08;;;;;;;9.13;4.78;;;;;;;16.29;22.20;100461.54;1716242;83;21174;-73
2021/04/28 08:40:39;;;;;;;11.30;4.65;;;;;;;16.15;21.83;100467.13;1709901;83;21610;-73
2021/04/28 08:43:07;;;;;;;14.70;4.75;;;;;;;15.88;22.50;100470.81;1682848;84;21290;-72
2021/04/28 08:45:35;;;;;;;6.33;3.95;;;;;;;16.11;23.74;100468.23;1702865;82;21247;-71
2021/04/28 08:48:05;;;;;;;9.35;4.20;;;;;;;16.74;22.56;100463.38;1704165;82;21196;-72
2021/04/28 08:50:33;;;;;;;7.22;3.62;;;;;;;17.47;22.12;100462.69;1676506;84;21216;-72
2021/04/28 08:53:01;;;;;;;10.98;3.60;;;;;;;18.00;21.55;100460.37;1692261;84;21382;-71
2021/04/28 08:55:30;;;;;;;11.20;3.92;;;;;;;18.55;20.10;100456.84;1684601;82;21198;-71
2021/04/28 08:57:58;;;;;;;9.05;4.30;;;;;;;19.00;19.28;100456.59;1684900;84;21187;-73
2021/04/28 09:00:26;;;;;;;15.32;4.70;;;;;;;18.99;20.56;100452.23;1685319;85;21210;-72
2021/04/28 09:02:56;;;;;;;11.40;4.45;;;;;;;18.48;19.65;100454.20;1690911;82;21664;-79
2021/04/28 09:05:25;;;;;;;8.95;4.65;;;;;;;17.90;20.23;100448.56;1691998;84;24113;-75
2021/04/28 09:07:53;;;;;;;15.63;3.92;;;;;;;17.47;20.20;100451.20;1701619;84;21755;-74
2021/04/28 09:10:25;;;;;;;11.22;4.00;;;;;;;17.28;20.23;100458.95;1701730;84;21176;-80
2021/04/28 09:12:57;;;;;;;12.90;4.65;;;;;;;16.81;21.83;100453.28;1696142;84;21241;-76
2021/04/28 09:15:44;;;;;;;11.80;4.60;;;;;;;16.56;21.21;100454.67;1690603;84;21627;-75
2021/04/28 09:18:20;;;;;;;12.00;4.05;;;;;;;16.26;20.96;100451.05;1685255;83;21469;-73
2021/04/28 09:21:07;;;;;;;7.08;4.30;;;;;;;15.48;21.62;100452.11;1665229;83;21283;-74
2021/04/28 09:23:47;;;;;;;15.75;4.30;;;;;;;15.18;23.19;100452.75;1830741;76;22741;-73
2021/04/28 09:26:34;;;;;;;9.18;3.85;;;;;;;15.11;23.06;100446.05;1773628;77;21158;-74
2021/04/28 09:29:23;;;;;;;12.82;5.42;;;;;;;15.51;22.24;100451.97;1781922;78;21272;-73
2021/04/28 09:32:05;;;;;;;7.42;3.85;;;;;;;15.41;21.94;100441.42;1775817;80;21098;-77
2021/04/28 09:34:39;;;;;;;13.90;4.05;;;;;;;15.55;22.36;100448.66;1755212;80;21182;-75
2021/04/28 09:37:16;;;;;;;13.68;4.20;;;;;;;16.19;22.36;100436.40;1768496;80;21105;-75
2021/04/28 09:39:47;;;;;;;11.28;3.80;;;;;;;15.87;21.36;100449.64;1767481;80;21606;-74
2021/04/28 09:42:17;;;;;;;12.40;4.10;;;;;;;15.53;21.70;100445.63;1770277;80;21461;-78
2021/04/28 09:47:26;;;;;;;20.52;4.80;;;;;;;16.57;22.30;100443.08;1827899;77;23010;-78
2021/04/28 09:50:05;;;;;;;16.85;4.37;;;;;;;16.65;21.06;100443.11;1756574;80;21683;-78
2021/04/28 09:52:41;;;;;;;10.30;4.22;;;;;;;16.25;21.12;100441.38;1785694;80;21177;-78
2021/04/28 09:55:15;;;;;;;10.43;3.65;;;;;;;16.31;21.40;100437.91;1789463;78;21182;-78
2021/04/28 09:57:45;;;;;;;6.55;3.25;;;;;;;16.81;22.47;100435.14;1788441;78;21629;-78
2021/04/28 10:00:28;;;;;;;8.70;3.55;;;;;;;17.25;19.35;100436.50;1789214;78;21143;-76
2021/04/28 10:03:03;;;;;;;9.98;3.65;;;;;;;17.36;19.30;100436.70;1790446;78;21610;-77
2021/04/28 10:05:41;;;;;;;6.22;2.90;;;;;;;17.55;19.41;100435.59;1746588;80;21853;-75
2021/04/28 10:08:23;;;;;;;13.43;3.98;;;;;;;18.03;19.18;100430.86;1760680;80;21489;-78
2021/04/28 10:10:52;;;;;;;5.78;3.60;;;;;;;18.17;18.55;100430.83;1791543;78;21657;-76
2021/04/28 10:13:20;;;;;;;7.30;3.47;;;;;;;17.77;19.37;100420.00;1784508;79;21148;-76
2021/04/28 10:15:48;;;;;;;5.83;3.22;;;;;;;17.86;18.90;100417.77;1792635;78;21190;-76
2021/04/28 10:18:19;;;;;;;8.38;3.50;;;;;;;17.90;18.81;100420.59;1791213;78;21361;-76
2021/04/28 10:20:48;;;;;;;11.12;4.37;;;;;;;18.00;18.90;100421.73;1785276;80;21160;-75
2021/04/28 10:23:17;;;;;;;11.88;4.20;;;;;;;18.05;20.07;100418.30;1746104;80;21196;-75
2021/04/28 10:25:50;;;;;;;9.85;3.70;;;;;;;18.37;20.18;100411.38;1778262;80;21225;-75
2021/04/28 10:28:20;;;;;;;14.70;3.77;;;;;;;18.20;19.14;100408.00;1740886;80;21674;-77
2021/04/28 10:30:49;;;;;;;13.08;3.95;;;;;;;17.91;20.01;100418.32;1739562;80;21341;-75
2021/04/28 10:33:28;;;;;;;12.45;4.45;;;;;;;17.20;20.01;100422.61;1738208;80;21201;-77
2021/04/28 10:35:57;;;;;;;6.85;3.60;;;;;;;16.75;20.48;100413.25;1739104;81;21720;-75
2021/04/28 10:38:27;;;;;;;17.65;4.05;;;;;;;16.35;20.65;100425.30;1742590;81;21198;-84
2021/04/28 10:40:55;;;;;;;8.03;4.58;;;;;;;16.20;20.32;100414.22;1744392;81;21141;-82
2021/04/28 10:43:36;;;;;;;7.62;4.05;;;;;;;16.49;21.05;100408.08;1746337;81;21625;-82
2021/04/28 10:46:22;;;;;;;11.28;3.62;;;;;;;16.92;21.46;100407.44;1745410;81;21613;-82
2021/04/28 10:48:52;;;;;;;7.35;3.50;;;;;;;17.31;21.35;100404.20;1737051;81;21210;-83
2021/04/28 10:51:39;;;;;;;11.20;4.08;;;;;;;17.88;20.36;100405.20;1699141;83;21205;-84
2021/04/28 10:54:27;;;;;;;6.90;3.50;;;;;;;18.45;20.51;100395.75;1657376;84;21202;-84
2021/04/28 10:57:07;;;;;;;18.35;4.20;;;;;;;18.96;18.66;100393.73;1697388;83;21278;-83
2021/04/28 10:59:41;;;;;;;12.43;3.85;;;;;;;19.11;18.38;100391.82;1701167;83;21200;-83
2021/04/28 11:02:12;;;;;;;11.50;4.90;;;;;;;18.86;19.48;100384.14;1702270;83;21545;-84
2021/04/28 11:04:46;;;;;;;8.43;4.25;;;;;;;18.19;19.81;100390.27;1669306;84;21376;-74
2021/04/28 11:07:34;;;;;;;10.38;4.00;;;;;;;17.57;20.06;100391.09;1694735;84;21202;-79
2021/04/28 11:10:32;;;;;;;8.50;4.45;;;;;;;16.92;20.29;100400.31;1679886;84;21492;-79
2021/04/28 11:13:18;;;;;;;8.40;3.67;;;;;;;16.50;20.60;100396.52;1691001;83;21186;-75
2021/04/28 11:15:56;;;;;;;13.18;5.00;;;;;;;16.19;20.92;100391.23;1691671;84;21164;-77
2021/04/28 11:18:37;;;;;;;11.75;5.53;;;;;;;16.33;21.02;100388.64;1682705;85;21210;-79
2021/04/28 11:21:23;;;;;;;9.83;4.37;;;;;;;16.95;22.71;100373.99;1682386;85;21194;-76
2021/04/28 11:24:08;;;;;;;15.85;4.72;;;;;;;16.95;22.71;100373.99;1696197;83;21273;-79
2021/04/28 11:26:40;;;;;;;8.20;3.95;;;;;;;17.67;21.86;100373.59;1695990;82;21181;-77
2021/04/28 11:29:08;;;;;;;14.40;6.75;;;;;;;18.41;20.51;100368.90;1743662;80;21193;-79
2021/04/28 11:31:57;;;;;;;10.58;4.58;;;;;;;18.64;19.25;100364.70;1741230;81;21923;-83
2021/04/28 11:34:34;;;;;;;10.50;4.60;;;;;;;18.30;18.90;100374.08;1741608;80;21149;-75
2021/04/28 11:37:08;;;;;;;14.25;4.28;;;;;;;17.91;19.82;100366.37;1742014;81;21200;-75
2021/04/28 11:39:44;;;;;;;9.95;4.45;;;;;;;17.78;20.35;100359.59;1685345;84;21200;-75
2021/04/28 11:42:18;;;;;;;16.12;4.05;;;;;;;17.66;21.46;100355.89;1678171;85;21659;-76
2021/04/28 11:44:53;;;;;;;16.07;4.35;;;;;;;17.70;21.63;100366.73;1678502;85;21249;-76
2021/04/28 11:47:23;;;;;;;11.85;4.37;;;;;;;17.20;20.15;100369.39;1678971;85;21237;-75
2021/04/28 11:49:55;;;;;;;10.40;3.40;;;;;;;16.94;20.99;100358.52;1676966;85;21479;-75